Terminal Aerodrome Forecast
Issued by NWS

Home | Current Version | Previous Version | Text Only | Print | Product List | Glossary On
Versions: 1 2 3 4 5 6 7 8 9 10 11 12 13 14 15 16 17 18 19 20 21
000
FTUS43 KDVN 202214 AAC
TAFCID
TAF AMD
KCID 202214Z 2022/2118 05008KT P6SM VCSH BKN015 OVC025
     FM210100 02006KT P6SM SCT020 BKN050
     FM210600 29004KT P6SM BKN080
     FM211500 28010KT P6SM SCT250=

USA.gov is the U.S. government's official web portal to all federal, state and local government web resources and services.